createdAt,value
2023-01-18T00:00:32.843Z,369.34
2023-01-18T00:03:42.521Z,386.28
2023-01-18T00:06:49.477Z,462.36
2023-01-18T00:09:58.184Z,518.07
2023-01-18T00:13:05.066Z,479.54
2023-01-18T00:16:16.098Z,465.56
2023-01-18T00:19:23.126Z,440.83
2023-01-18T00:22:29.142Z,443.65
2023-01-18T00:25:38.663Z,463.43
2023-01-18T00:28:45.204Z,444.28
2023-01-18T00:31:52.206Z,464.71
2023-01-18T00:34:58.908Z,449.25
2023-01-18T00:38:07.365Z,471.51
2023-01-18T00:41:15.969Z,505.24
2023-01-18T00:44:20.207Z,480.33
2023-01-18T00:47:26.291Z,478.70
2023-01-18T00:50:33.254Z,432.80
2023-01-18T00:53:40.532Z,417.00
2023-01-18T00:56:50.029Z,382.78
2023-01-18T00:59:56.073Z,388.46
2023-01-18T01:03:03.574Z,378.65
2023-01-18T01:06:22.316Z,352.82
2023-01-18T01:09:32.932Z,351.33
2023-01-18T01:12:54.043Z,341.15
2023-01-18T01:16:13.723Z,342.80
2023-01-18T01:19:32.080Z,332.11
2023-01-18T01:22:51.208Z,314.58
2023-01-18T01:26:11.128Z,310.48
2023-01-18T01:29:20.930Z,309.96
2023-01-18T01:32:26.902Z,302.84
2023-01-18T01:35:33.899Z,319.46
2023-01-18T01:38:41.591Z,329.78
2023-01-18T01:41:48.401Z,326.95
2023-01-18T01:44:58.377Z,323.67
2023-01-18T01:48:05.370Z,300.64
2023-01-18T01:51:11.619Z,305.85
2023-01-18T01:54:28.525Z,285.49
2023-01-18T01:57:40.961Z,289.71
2023-01-18T02:00:50.762Z,275.75
2023-01-18T02:04:00.456Z,282.48
2023-01-18T02:07:07.600Z,266.58
2023-01-18T02:10:14.973Z,267.03
2023-01-18T02:13:25.584Z,252.62
2023-01-18T02:16:58.497Z,248.59
2023-01-18T02:20:50.802Z,243.55
2023-01-18T02:24:54.615Z,241.40
2023-01-18T02:28:20.418Z,233.12
2023-01-18T02:31:35.926Z,226.92
2023-01-18T02:34:50.861Z,232.32
2023-01-18T02:38:12.912Z,225.86
2023-01-18T02:41:52.225Z,223.08
2023-01-18T02:45:36.049Z,219.55
2023-01-18T02:48:46.983Z,224.14
2023-01-18T02:51:53.298Z,218.65
2023-01-18T02:55:00.127Z,213.96
2023-01-18T02:58:15.600Z,220.25
2023-01-18T03:01:34.466Z,218.00
2023-01-18T03:04:54.541Z,214.61
2023-01-18T03:08:14.461Z,208.76
2023-01-18T03:11:33.905Z,210.48
2023-01-18T03:14:57.687Z,210.81
2023-01-18T03:18:19.951Z,205.75
2023-01-18T03:21:27.759Z,217.30
2023-01-18T03:24:41.698Z,206.65
2023-01-18T03:28:08.469Z,193.99
2023-01-18T03:31:33.533Z,190.23
2023-01-18T03:34:55.625Z,197.79
2023-01-18T03:38:03.503Z,199.26
2023-01-18T03:41:14.627Z,195.39
2023-01-18T03:44:29.621Z,201.46
2023-01-18T03:47:37.196Z,202.40
2023-01-18T03:50:56.448Z,204.59
2023-01-18T03:54:18.334Z,198.86
2023-01-18T03:57:36.055Z,197.12
2023-01-18T04:00:44.267Z,202.46
2023-01-18T04:03:50.271Z,201.23
2023-01-18T04:07:00.434Z,202.01
2023-01-18T04:10:07.163Z,219.83
2023-01-18T04:13:14.315Z,230.45
2023-01-18T04:16:20.330Z,226.53
2023-01-18T04:19:28.454Z,218.32
2023-01-18T04:22:37.391Z,228.40
2023-01-18T04:25:45.994Z,231.09
2023-01-18T04:28:52.008Z,237.65
2023-01-18T04:31:59.129Z,226.10
2023-01-18T04:35:05.284Z,226.32
2023-01-18T04:38:14.824Z,235.98
2023-01-18T04:41:20.862Z,225.52
2023-01-18T04:44:27.921Z,226.17
2023-01-18T04:47:34.457Z,227.56
2023-01-18T04:50:45.760Z,219.64
2023-01-18T04:53:54.937Z,219.67
2023-01-18T04:57:01.787Z,208.97
2023-01-18T05:00:10.199Z,204.23
2023-01-18T05:03:17.132Z,193.24
2023-01-18T05:06:24.301Z,190.41
2023-01-18T05:09:34.385Z,185.61
2023-01-18T05:12:40.573Z,194.60
2023-01-18T05:15:47.460Z,228.26
2023-01-18T05:18:54.070Z,276.34
2023-01-18T05:22:00.903Z,275.14
2023-01-18T05:25:11.138Z,237.44
2023-01-18T05:28:18.011Z,220.30
2023-01-18T05:31:24.035Z,222.71
2023-01-18T05:34:30.932Z,230.26
2023-01-18T05:37:37.124Z,249.67
2023-01-18T05:40:47.476Z,262.66
2023-01-18T05:43:53.525Z,294.62
2023-01-18T05:47:01.135Z,353.38
2023-01-18T05:50:08.475Z,333.98
2023-01-18T05:53:19.404Z,305.57
2023-01-18T05:56:28.066Z,298.40
2023-01-18T05:59:35.499Z,318.57
2023-01-18T06:02:41.533Z,313.63
2023-01-18T06:05:51.607Z,338.25
2023-01-18T06:08:58.073Z,332.50
2023-01-18T06:12:08.352Z,300.09
2023-01-18T06:15:16.112Z,291.50
2023-01-18T06:18:23.098Z,275.90
2023-01-18T06:21:29.171Z,257.21
2023-01-18T06:24:36.152Z,241.88
2023-01-18T06:27:45.181Z,235.02
2023-01-18T06:30:56.678Z,230.26
2023-01-18T06:34:09.464Z,224.67
2023-01-18T06:37:16.407Z,207.22
2023-01-18T06:40:22.646Z,210.82
2023-01-18T06:43:32.509Z,213.60
2023-01-18T06:46:38.710Z,220.57
2023-01-18T06:49:48.306Z,254.64
2023-01-18T06:52:56.139Z,296.14
2023-01-18T06:56:05.072Z,287.33
2023-01-18T06:59:13.887Z,210.98
2023-01-18T07:02:20.810Z,216.82
2023-01-18T07:05:26.921Z,226.19
2023-01-18T07:08:35.774Z,229.55
2023-01-18T07:11:43.518Z,285.17
2023-01-18T07:14:52.930Z,282.28
2023-01-18T07:17:58.914Z,334.39
2023-01-18T07:21:09.422Z,331.04
2023-01-18T07:24:15.466Z,366.51
2023-01-18T07:27:22.473Z,490.73
2023-01-18T07:30:31.160Z,392.06
2023-01-18T07:33:38.926Z,417.04
2023-01-18T07:36:45.010Z,436.05
2023-01-18T07:39:52.446Z,349.69
2023-01-18T07:43:03.088Z,323.31
2023-01-18T07:46:18.763Z,285.31
2023-01-18T07:49:24.776Z,258.85
2023-01-18T07:52:31.749Z,251.96
2023-01-18T07:55:40.860Z,244.08
2023-01-18T07:58:49.213Z,241.43
2023-01-18T08:01:58.354Z,214.30
2023-01-18T08:05:05.304Z,251.93
2023-01-18T08:08:13.354Z,212.53
2023-01-18T08:11:20.787Z,148.43
2023-01-18T08:14:26.877Z,169.99
2023-01-18T08:17:38.585Z,194.41
2023-01-18T08:20:47.061Z,180.33
2023-01-18T08:23:56.724Z,213.84
2023-01-18T08:27:02.808Z,206.21
2023-01-18T08:30:12.460Z,215.78
2023-01-18T08:33:21.222Z,312.82
2023-01-18T08:36:30.006Z,296.61
2023-01-18T08:39:36.070Z,293.84
2023-01-18T08:42:42.992Z,257.20
2023-01-18T08:45:53.946Z,340.60
2023-01-18T08:49:06.018Z,261.52
2023-01-18T08:52:12.278Z,201.59
2023-01-18T08:55:19.319Z,385.76
2023-01-18T08:58:25.400Z,372.55
2023-01-18T09:01:33.277Z,522.31
2023-01-18T09:04:42.594Z,423.28
2023-01-18T09:07:51.066Z,315.35
2023-01-18T09:10:57.311Z,297.32
2023-01-18T09:14:04.241Z,282.51
2023-01-18T09:17:10.420Z,289.94
2023-01-18T09:20:20.431Z,285.69
2023-01-18T09:23:26.906Z,214.09
2023-01-18T09:26:34.127Z,192.49
2023-01-18T09:29:40.538Z,215.62
2023-01-18T09:32:47.991Z,226.64
2023-01-18T09:35:57.163Z,244.87
2023-01-18T09:39:04.678Z,322.91
2023-01-18T09:42:23.971Z,421.59
2023-01-18T09:45:39.955Z,520.06
2023-01-18T09:48:53.163Z,572.46
2023-01-18T09:52:27.770Z,479.14
2023-01-18T09:55:51.956Z,341.11
2023-01-18T09:59:19.004Z,373.72
2023-01-18T10:02:36.202Z,377.51
2023-01-18T10:06:08.689Z,381.40
2023-01-18T10:09:25.228Z,344.99
2023-01-18T10:12:45.618Z,371.11
2023-01-18T10:15:53.081Z,376.62
2023-01-18T10:19:01.768Z,454.82
2023-01-18T10:22:19.721Z,429.12
2023-01-18T10:25:42.001Z,432.51
2023-01-18T10:29:00.897Z,485.39
2023-01-18T10:32:18.452Z,453.54
2023-01-18T10:35:33.970Z,485.02
2023-01-18T10:38:41.116Z,516.31
2023-01-18T10:41:49.829Z,477.78
2023-01-18T10:44:57.438Z,463.73
2023-01-18T10:48:29.095Z,393.70
2023-01-18T10:51:40.491Z,475.30
2023-01-18T10:54:56.072Z,480.78
2023-01-18T10:58:06.175Z,489.07
2023-01-18T11:01:22.516Z,480.02
2023-01-18T11:04:34.548Z,443.70
2023-01-18T11:07:40.595Z,490.17
2023-01-18T11:10:47.597Z,490.09
2023-01-18T11:13:56.286Z,457.09
2023-01-18T11:17:11.133Z,489.72
2023-01-18T11:20:23.439Z,464.67
2023-01-18T11:23:38.554Z,539.50
2023-01-18T11:27:02.352Z,478.16
2023-01-18T11:30:27.499Z,539.80
2023-01-18T11:33:33.899Z,630.49
2023-01-18T11:36:45.240Z,658.23
2023-01-18T11:39:51.486Z,691.04
2023-01-18T11:43:06.596Z,588.53
2023-01-18T11:46:51.076Z,606.40
2023-01-18T11:50:22.022Z,591.71
2023-01-18T11:53:49.470Z,677.86
2023-01-18T11:57:02.985Z,656.45
2023-01-18T12:00:18.928Z,632.18
2023-01-18T12:03:55.129Z,572.31
2023-01-18T12:07:28.689Z,549.74
2023-01-18T12:10:53.736Z,494.36
2023-01-18T12:14:13.016Z,454.92
2023-01-18T12:17:47.343Z,471.91
2023-01-18T12:21:09.467Z,437.22
2023-01-18T12:24:47.743Z,428.68
2023-01-18T12:28:12.149Z,406.10
2023-01-18T12:31:40.004Z,396.67
2023-01-18T12:35:23.257Z,392.92
2023-01-18T12:38:37.138Z,388.62
2023-01-18T12:42:00.437Z,382.72
2023-01-18T12:45:30.376Z,393.86
2023-01-18T12:48:49.752Z,403.44
2023-01-18T12:52:18.122Z,398.11
2023-01-18T12:55:35.207Z,412.31
2023-01-18T12:58:44.442Z,459.76
2023-01-18T13:02:00.701Z,452.40
2023-01-18T13:05:23.306Z,455.58
2023-01-18T13:08:46.060Z,407.69
2023-01-18T13:11:58.619Z,385.50
2023-01-18T13:15:26.496Z,371.86
2023-01-18T13:18:46.291Z,369.79
2023-01-18T13:22:12.168Z,350.35
2023-01-18T13:25:51.910Z,333.09
2023-01-18T13:29:26.049Z,344.29
2023-01-18T13:32:38.656Z,344.34
2023-01-18T13:35:58.248Z,333.51
2023-01-18T13:39:18.837Z,350.75
2023-01-18T13:42:38.319Z,362.03
2023-01-18T13:46:07.328Z,343.15
2023-01-18T13:49:38.617Z,322.81
2023-01-18T13:52:45.782Z,330.24
2023-01-18T13:56:25.943Z,359.85
2023-01-18T13:59:38.946Z,349.65
2023-01-18T14:02:54.672Z,320.00
2023-01-18T14:06:09.327Z,338.77
2023-01-18T14:09:21.256Z,337.22
2023-01-18T14:12:57.550Z,331.30
2023-01-18T14:16:05.189Z,349.59
2023-01-18T14:19:23.379Z,356.14
2023-01-18T14:22:58.265Z,367.92
2023-01-18T14:26:22.600Z,339.77
2023-01-18T14:29:43.771Z,313.92
2023-01-18T14:33:03.438Z,344.37
2023-01-18T14:36:26.008Z,378.54
2023-01-18T14:39:33.463Z,339.46
2023-01-18T14:42:50.541Z,328.60
2023-01-18T14:46:05.093Z,364.64
2023-01-18T14:49:32.100Z,390.26
2023-01-18T14:52:42.163Z,375.70
2023-01-18T14:56:10.093Z,349.91
2023-01-18T14:59:27.850Z,319.96
2023-01-18T15:02:42.607Z,316.82
2023-01-18T15:05:53.346Z,312.19
2023-01-18T15:09:03.172Z,312.48
2023-01-18T15:12:16.664Z,359.10
2023-01-18T15:15:31.446Z,339.08
2023-01-18T15:18:38.650Z,320.64
2023-01-18T15:21:46.671Z,306.36
2023-01-18T15:24:59.162Z,319.47
2023-01-18T15:28:22.758Z,419.50
2023-01-18T15:31:31.685Z,382.03
2023-01-18T15:34:42.494Z,368.37
2023-01-18T15:37:49.497Z,300.29
2023-01-18T15:41:09.661Z,303.59
2023-01-18T15:44:42.787Z,301.48
2023-01-18T15:47:54.786Z,314.72
2023-01-18T15:51:14.565Z,312.85
2023-01-18T15:54:26.064Z,281.45
2023-01-18T15:57:39.759Z,279.19
2023-01-18T16:00:58.122Z,309.92
2023-01-18T16:04:22.936Z,293.42
2023-01-18T16:07:42.497Z,278.10
2023-01-18T16:10:56.688Z,258.86
2023-01-18T16:14:13.221Z,260.69
2023-01-18T16:17:26.987Z,326.04
2023-01-18T16:20:36.436Z,373.77
2023-01-18T16:23:49.589Z,419.35
2023-01-18T16:26:57.069Z,365.20
2023-01-18T16:30:23.266Z,302.78
2023-01-18T16:33:29.592Z,296.11
2023-01-18T16:36:42.668Z,316.64
2023-01-18T16:39:49.233Z,325.49
2023-01-18T16:43:05.138Z,290.00
2023-01-18T16:46:14.029Z,331.64
2023-01-18T16:49:21.345Z,354.00
2023-01-18T16:52:27.636Z,301.08
2023-01-18T16:55:34.561Z,269.74
2023-01-18T16:58:40.603Z,245.66
2023-01-18T17:01:51.027Z,219.88
2023-01-18T17:04:57.121Z,214.17
2023-01-18T17:08:05.183Z,230.25
2023-01-18T17:11:17.798Z,275.98
2023-01-18T17:14:25.577Z,313.05
2023-01-18T17:17:35.061Z,267.09
2023-01-18T17:20:42.491Z,220.28
2023-01-18T17:23:48.763Z,276.11
2023-01-18T17:26:56.015Z,367.11
2023-01-18T17:30:02.261Z,268.75
2023-01-18T17:33:20.371Z,271.63
2023-01-18T17:36:26.570Z,288.58
2023-01-18T17:39:43.702Z,368.09
2023-01-18T17:43:00.415Z,346.01
2023-01-18T17:46:09.523Z,306.38
2023-01-18T17:49:18.376Z,303.42
2023-01-18T17:52:25.713Z,261.18
2023-01-18T17:55:35.046Z,269.45
2023-01-18T17:58:43.097Z,272.12
2023-01-18T18:01:49.506Z,289.04
2023-01-18T18:04:59.522Z,293.03
2023-01-18T18:08:08.811Z,314.57
2023-01-18T18:11:19.031Z,338.70
2023-01-18T18:14:27.260Z,355.75
2023-01-18T18:17:35.606Z,290.35
2023-01-18T18:20:45.026Z,290.75
2023-01-18T18:23:52.223Z,272.71
2023-01-18T18:26:58.400Z,281.54
2023-01-18T18:30:05.564Z,253.70
2023-01-18T18:33:11.798Z,262.82
2023-01-18T18:36:21.507Z,337.07
2023-01-18T18:39:27.567Z,340.22
2023-01-18T18:42:34.743Z,360.61
2023-01-18T18:45:41.513Z,361.50
2023-01-18T18:48:48.829Z,321.82
2023-01-18T18:52:00.326Z,321.20
2023-01-18T18:55:10.516Z,395.35
2023-01-18T18:58:18.495Z,382.10
2023-01-18T19:01:29.644Z,381.15
2023-01-18T19:04:36.462Z,400.40
2023-01-18T19:07:47.316Z,416.39
2023-01-18T19:10:54.797Z,419.91
2023-01-18T19:14:01.811Z,429.37
2023-01-18T19:17:09.109Z,390.17
2023-01-18T19:20:17.977Z,321.83
2023-01-18T19:23:27.288Z,310.43
2023-01-18T19:26:34.470Z,340.59
2023-01-18T19:29:40.647Z,389.14
2023-01-18T19:32:49.465Z,432.07
2023-01-18T19:35:55.711Z,457.28
2023-01-18T19:39:09.296Z,391.58
2023-01-18T19:42:21.663Z,329.67
2023-01-18T19:45:29.771Z,312.93
2023-01-18T19:48:37.004Z,303.59
2023-01-18T19:51:45.385Z,315.72
2023-01-18T19:54:54.452Z,310.64
2023-01-18T19:58:02.410Z,333.40
2023-01-18T20:01:26.548Z,324.88
2023-01-18T20:04:38.055Z,298.51
2023-01-18T20:07:44.419Z,334.94
2023-01-18T20:10:53.992Z,331.02
2023-01-18T20:14:00.531Z,306.21
2023-01-18T20:17:07.740Z,295.22
2023-01-18T20:20:24.166Z,309.09
2023-01-18T20:23:38.223Z,316.48
2023-01-18T20:26:47.303Z,347.44
2023-01-18T20:29:54.727Z,437.56
2023-01-18T20:33:01.793Z,429.90
2023-01-18T20:36:11.176Z,528.52
2023-01-18T20:39:17.730Z,473.98
2023-01-18T20:42:27.734Z,564.03
2023-01-18T20:45:34.222Z,435.44
2023-01-18T20:48:42.591Z,479.80
2023-01-18T20:51:48.992Z,585.62
2023-01-18T20:54:57.211Z,636.79
2023-01-18T20:58:06.443Z,646.64
2023-01-18T21:01:16.923Z,610.96
2023-01-18T21:04:24.165Z,560.51
2023-01-18T21:07:31.802Z,564.50
2023-01-18T21:10:41.587Z,505.79
2023-01-18T21:13:51.701Z,504.48
2023-01-18T21:16:58.537Z,462.89
2023-01-18T21:20:05.907Z,461.40
2023-01-18T21:23:13.340Z,459.76
2023-01-18T21:26:20.775Z,524.41
2023-01-18T21:29:29.922Z,500.33
2023-01-18T21:32:37.223Z,481.37
2023-01-18T21:35:43.664Z,457.99
2023-01-18T21:38:50.996Z,510.29
2023-01-18T21:42:19.539Z,515.41
2023-01-18T21:45:50.683Z,604.62
2023-01-18T21:48:57.085Z,435.35
2023-01-18T21:52:16.772Z,476.90
2023-01-18T21:55:23.590Z,541.47
2023-01-18T21:58:43.218Z,696.67
2023-01-18T22:01:52.243Z,733.34
2023-01-18T22:05:03.841Z,703.41
2023-01-18T22:08:10.505Z,718.82
2023-01-18T22:11:17.726Z,437.63
2023-01-18T22:14:23.988Z,427.82
2023-01-18T22:17:33.791Z,381.06
2023-01-18T22:20:39.900Z,376.29
2023-01-18T22:23:46.776Z,382.95
2023-01-18T22:26:52.912Z,385.06
2023-01-18T22:29:59.864Z,390.73
2023-01-18T22:33:08.668Z,547.55
2023-01-18T22:36:16.154Z,741.41
2023-01-18T22:39:22.300Z,642.47
2023-01-18T22:42:29.328Z,526.49
2023-01-18T22:45:35.481Z,538.19
2023-01-18T22:48:46.689Z,484.43
2023-01-18T22:51:52.721Z,416.57
2023-01-18T22:54:59.601Z,438.92
2023-01-18T22:58:06.680Z,466.40
2023-01-18T23:01:21.692Z,474.34
2023-01-18T23:04:31.708Z,494.93
2023-01-18T23:07:38.822Z,494.31
2023-01-18T23:10:44.917Z,487.47
2023-01-18T23:14:07.760Z,461.79
2023-01-18T23:17:27.482Z,490.55
2023-01-18T23:20:37.199Z,531.64
2023-01-18T23:23:43.196Z,942.58
2023-01-18T23:26:51.174Z,912.58
2023-01-18T23:29:59.528Z,895.16
2023-01-18T23:33:06.521Z,773.31
2023-01-18T23:36:16.087Z,639.31
2023-01-18T23:39:35.278Z,636.88
2023-01-18T23:42:53.669Z,599.56
2023-01-18T23:46:12.994Z,575.59
2023-01-18T23:49:31.493Z,644.22
2023-01-18T23:52:53.493Z,667.92
2023-01-18T23:55:59.532Z,675.38
2023-01-18T23:59:06.533Z,657.77
